sensor_id;sensor_type;location;lat;lon;timestamp;pressure;altitude;pressure_sealevel;temperature;humidity
23433;BME280;41331;45.412;10.992;2023-04-02T00:06:42;99891.91;;;14.41;82.81
23433;BME280;41331;45.412;10.992;2023-04-02T00:11:43;99886.44;;;13.72;87.45
23433;BME280;41331;45.412;10.992;2023-04-02T00:14:24;99887.88;;;13.66;87.65
23433;BME280;41331;45.412;10.992;2023-04-02T00:16:53;99887.03;;;13.85;86.71
23433;BME280;41331;45.412;10.992;2023-04-02T00:20:04;99891.81;;;13.69;88.04
23433;BME280;41331;45.412;10.992;2023-04-02T00:22:14;99883.63;;;13.69;88.37
23433;BME280;41331;45.412;10.992;2023-04-02T00:24:42;99890.53;;;13.82;87.19
23433;BME280;41331;45.412;10.992;2023-04-02T00:27:12;99888.78;;;13.74;86.94
23433;BME280;41331;45.412;10.992;2023-04-02T00:29:44;99894.16;;;13.67;87.27
23433;BME280;41331;45.412;10.992;2023-04-02T00:32:14;99898.56;;;13.75;86.69
23433;BME280;41331;45.412;10.992;2023-04-02T00:34:44;99896.28;;;13.77;86.10
23433;BME280;41331;45.412;10.992;2023-04-02T00:37:15;99893.41;;;13.70;86.85
23433;BME280;41331;45.412;10.992;2023-04-02T00:39:44;99900.31;;;13.64;87.87
23433;BME280;41331;45.412;10.992;2023-04-02T00:42:11;99889.84;;;13.66;87.35
23433;BME280;41331;45.412;10.992;2023-04-02T00:44:39;99887.00;;;13.82;86.02
23433;BME280;41331;45.412;10.992;2023-04-02T00:47:13;99895.19;;;13.82;85.69
23433;BME280;41331;45.412;10.992;2023-04-02T00:49:43;99888.81;;;13.55;88.00
23433;BME280;41331;45.412;10.992;2023-04-02T00:52:12;99891.78;;;13.46;88.15
23433;BME280;41331;45.412;10.992;2023-04-02T00:55:29;99897.47;;;13.57;88.05
23433;BME280;41331;45.412;10.992;2023-04-02T00:57:28;99896.09;;;13.47;88.58
23433;BME280;41331;45.412;10.992;2023-04-02T00:59:57;99892.28;;;13.52;88.23
23433;BME280;41331;45.412;10.992;2023-04-02T01:02:26;99892.63;;;13.50;88.51
23433;BME280;41331;45.412;10.992;2023-04-02T01:05:02;99901.56;;;13.47;89.49
23433;BME280;41331;45.412;10.992;2023-04-02T01:15:26;99887.97;;;13.51;89.22
23433;BME280;41331;45.412;10.992;2023-04-02T01:18:01;99893.09;;;13.52;89.47
23433;BME280;41331;45.412;10.992;2023-04-02T01:23:13;99891.06;;;13.49;90.33
23433;BME280;41331;45.412;10.992;2023-04-02T01:25:45;99890.47;;;13.59;90.01
23433;BME280;41331;45.412;10.992;2023-04-02T01:31:00;99885.47;;;13.23;92.88
23433;BME280;41331;45.412;10.992;2023-04-02T01:33:29;99886.50;;;13.18;93.41
23433;BME280;41331;45.412;10.992;2023-04-02T01:36:04;99886.09;;;13.16;93.67
23433;BME280;41331;45.412;10.992;2023-04-02T01:38:34;99899.06;;;13.03;94.66
23433;BME280;41331;45.412;10.992;2023-04-02T01:41:07;99897.91;;;13.04;94.62
23433;BME280;41331;45.412;10.992;2023-04-02T01:46:30;99895.69;;;12.90;95.55
23433;BME280;41331;45.412;10.992;2023-04-02T01:48:59;99900.47;;;12.78;96.12
23433;BME280;41331;45.412;10.992;2023-04-02T01:51:32;99903.66;;;12.64;97.05
23433;BME280;41331;45.412;10.992;2023-04-02T01:54:03;99912.53;;;12.77;96.73
23433;BME280;41331;45.412;10.992;2023-04-02T01:56:32;99910.16;;;12.75;96.98
23433;BME280;41331;45.412;10.992;2023-04-02T01:59:00;99917.03;;;12.69;97.23
23433;BME280;41331;45.412;10.992;2023-04-02T02:01:35;99913.06;;;12.82;96.21
23433;BME280;41331;45.412;10.992;2023-04-02T02:04:08;99914.53;;;12.80;96.47
23433;BME280;41331;45.412;10.992;2023-04-02T02:06:37;99918.53;;;12.66;97.35
23433;BME280;41331;45.412;10.992;2023-04-02T02:09:05;99919.59;;;12.62;97.39
23433;BME280;41331;45.412;10.992;2023-04-02T02:11:34;99921.56;;;12.46;98.53
23433;BME280;41331;45.412;10.992;2023-04-02T02:14:19;99923.41;;;12.57;97.77
23433;BME280;41331;45.412;10.992;2023-04-02T02:16:48;99929.28;;;12.59;98.04
23433;BME280;41331;45.412;10.992;2023-04-02T02:19:23;99927.88;;;12.65;97.83
23433;BME280;41331;45.412;10.992;2023-04-02T02:22:06;99938.88;;;12.69;97.03
23433;BME280;41331;45.412;10.992;2023-04-02T02:24:34;99945.47;;;12.68;96.63
23433;BME280;41331;45.412;10.992;2023-04-02T02:29:30;99940.13;;;12.72;96.34
23433;BME280;41331;45.412;10.992;2023-04-02T02:32:01;99935.25;;;12.65;97.04
23433;BME280;41331;45.412;10.992;2023-04-02T02:34:31;99944.50;;;12.76;96.19
23433;BME280;41331;45.412;10.992;2023-04-02T02:37:06;99946.19;;;12.65;97.29
23433;BME280;41331;45.412;10.992;2023-04-02T02:39:39;99952.25;;;12.74;97.11
23433;BME280;41331;45.412;10.992;2023-04-02T02:42:10;99957.03;;;12.77;96.90
23433;BME280;41331;45.412;10.992;2023-04-02T02:44:42;99964.75;;;12.91;95.39
23433;BME280;41331;45.412;10.992;2023-04-02T02:47:12;99973.13;;;12.82;95.21
23433;BME280;41331;45.412;10.992;2023-04-02T02:49:41;99977.56;;;12.71;96.23
23433;BME280;41331;45.412;10.992;2023-04-02T02:52:16;99982.38;;;12.93;94.29
23433;BME280;41331;45.412;10.992;2023-04-02T02:54:55;99990.63;;;13.13;93.53
23433;BME280;41331;45.412;10.992;2023-04-02T02:57:28;99982.28;;;13.06;93.48
23433;BME280;41331;45.412;10.992;2023-04-02T02:59:57;99984.41;;;12.96;94.24
23433;BME280;41331;45.412;10.992;2023-04-02T03:02:27;99990.81;;;12.88;95.03
23433;BME280;41331;45.412;10.992;2023-04-02T03:04:56;99988.66;;;13.13;93.31
23433;BME280;41331;45.412;10.992;2023-04-02T03:07:26;99992.13;;;13.10;93.05
23433;BME280;41331;45.412;10.992;2023-04-02T03:17:35;99991.28;;;12.75;96.37
23433;BME280;41331;45.412;10.992;2023-04-02T03:20:10;99996.56;;;12.83;95.95
23433;BME280;41331;45.412;10.992;2023-04-02T03:22:43;99997.00;;;12.69;97.15
23433;BME280;41331;45.412;10.992;2023-04-02T03:27:45;100001.25;;;12.67;97.06
23433;BME280;41331;45.412;10.992;2023-04-02T03:33:05;99998.16;;;12.68;97.99
23433;BME280;41331;45.412;10.992;2023-04-02T03:35:45;99997.47;;;12.72;97.61
23433;BME280;41331;45.412;10.992;2023-04-02T03:38:21;100000.19;;;12.72;97.41
23433;BME280;41331;45.412;10.992;2023-04-02T03:40:58;100001.66;;;12.53;98.60
23433;BME280;41331;45.412;10.992;2023-04-02T03:43:30;100007.66;;;12.59;98.35
23433;BME280;41331;45.412;10.992;2023-04-02T03:46:20;100007.66;;;12.75;97.67
23433;BME280;41331;45.412;10.992;2023-04-02T03:48:50;100006.34;;;12.68;97.79
23433;BME280;41331;45.412;10.992;2023-04-02T03:51:39;100006.19;;;12.61;97.80
23433;BME280;41331;45.412;10.992;2023-04-02T03:54:11;100014.63;;;12.56;98.07
23433;BME280;41331;45.412;10.992;2023-04-02T03:56:40;100010.06;;;12.60;97.64
23433;BME280;41331;45.412;10.992;2023-04-02T03:59:15;100016.84;;;12.51;98.38
23433;BME280;41331;45.412;10.992;2023-04-02T04:01:45;100017.88;;;12.46;98.73
23433;BME280;41331;45.412;10.992;2023-04-02T04:04:15;100021.13;;;12.52;98.31
23433;BME280;41331;45.412;10.992;2023-04-02T04:06:44;100029.59;;;12.62;97.29
23433;BME280;41331;45.412;10.992;2023-04-02T04:09:17;100035.59;;;12.52;98.77
23433;BME280;41331;45.412;10.992;2023-04-02T04:11:50;100040.91;;;12.33;100.00
23433;BME280;41331;45.412;10.992;2023-04-02T04:14:31;100037.84;;;12.34;99.78
23433;BME280;41331;45.412;10.992;2023-04-02T04:17:14;100041.91;;;12.40;100.00
23433;BME280;41331;45.412;10.992;2023-04-02T04:22:14;100041.34;;;12.35;99.83
23433;BME280;41331;45.412;10.992;2023-04-02T04:24:45;100044.72;;;12.60;98.24
23433;BME280;41331;45.412;10.992;2023-04-02T04:30:23;100055.50;;;12.68;97.11
23433;BME280;41331;45.412;10.992;2023-04-02T04:32:55;100054.59;;;12.64;97.37
23433;BME280;41331;45.412;10.992;2023-04-02T04:35:38;100056.28;;;12.69;96.99
23433;BME280;41331;45.412;10.992;2023-04-02T04:38:18;100055.75;;;12.79;95.87
23433;BME280;41331;45.412;10.992;2023-04-02T04:40:56;100068.88;;;12.74;96.41
23433;BME280;41331;45.412;10.992;2023-04-02T04:43:31;100073.44;;;12.69;96.66
23433;BME280;41331;45.412;10.992;2023-04-02T04:46:02;100076.97;;;12.70;96.40
23433;BME280;41331;45.412;10.992;2023-04-02T04:48:53;100079.81;;;12.74;96.12
23433;BME280;41331;45.412;10.992;2023-04-02T04:51:21;100094.63;;;12.88;95.16
23433;BME280;41331;45.412;10.992;2023-04-02T04:53:51;100092.03;;;12.80;95.65
23433;BME280;41331;45.412;10.992;2023-04-02T04:56:25;100113.44;;;12.62;96.92
23433;BME280;41331;45.412;10.992;2023-04-02T05:01:44;100116.31;;;12.53;97.71
23433;BME280;41331;45.412;10.992;2023-04-02T05:04:16;100125.56;;;12.49;98.66
23433;BME280;41331;45.412;10.992;2023-04-02T05:17:24;100132.00;;;12.56;98.04
23433;BME280;41331;45.412;10.992;2023-04-02T05:22:52;100138.03;;;12.78;97.17
23433;BME280;41331;45.412;10.992;2023-04-02T05:32:57;100142.34;;;12.79;98.68
23433;BME280;41331;45.412;10.992;2023-04-02T05:35:30;100154.56;;;12.69;100.00
23433;BME280;41331;45.412;10.992;2023-04-02T05:37:59;100152.34;;;12.59;100.00
23433;BME280;41331;45.412;10.992;2023-04-02T05:40:35;100164.41;;;12.58;100.00
23433;BME280;41331;45.412;10.992;2023-04-02T05:43:08;100171.63;;;12.50;100.00
23433;BME280;41331;45.412;10.992;2023-04-02T05:45:42;100185.09;;;12.59;100.00
23433;BME280;41331;45.412;10.992;2023-04-02T05:48:16;100186.06;;;12.51;100.00
23433;BME280;41331;45.412;10.992;2023-04-02T05:50:49;100191.84;;;12.49;100.00
23433;BME280;41331;45.412;10.992;2023-04-02T05:53:24;100205.66;;;12.40;100.00
23433;BME280;41331;45.412;10.992;2023-04-02T06:07:14;100213.13;;;12.15;100.00
23433;BME280;41331;45.412;10.992;2023-04-02T06:14:48;100230.59;;;12.14;100.00
23433;BME280;41331;45.412;10.992;2023-04-02T06:17:16;100239.03;;;12.09;100.00
23433;BME280;41331;45.412;10.992;2023-04-02T06:19:44;100242.66;;;12.13;100.00
23433;BME280;41331;45.412;10.992;2023-04-02T06:24:56;100264.25;;;12.18;100.00
23433;BME280;41331;45.412;10.992;2023-04-02T06:27:26;100268.91;;;12.18;100.00
23433;BME280;41331;45.412;10.992;2023-04-02T06:29:59;100261.59;;;12.47;100.00
23433;BME280;41331;45.412;10.992;2023-04-02T06:32:30;100268.84;;;12.55;100.00
23433;BME280;41331;45.412;10.992;2023-04-02T06:34:57;100277.91;;;12.71;99.74
23433;BME280;41331;45.412;10.992;2023-04-02T06:37:29;100288.06;;;12.58;100.00
23433;BME280;41331;45.412;10.992;2023-04-02T06:40:31;100286.72;;;12.52;100.00
23433;BME280;41331;45.412;10.992;2023-04-02T06:46:25;100282.25;;;12.60;100.00
23433;BME280;41331;45.412;10.992;2023-04-02T06:51:45;100291.56;;;12.99;98.61
23433;BME280;41331;45.412;10.992;2023-04-02T06:54:14;100297.38;;;12.98;98.94
23433;BME280;41331;45.412;10.992;2023-04-02T06:56:45;100300.72;;;12.91;99.06
23433;BME280;41331;45.412;10.992;2023-04-02T06:59:19;100302.69;;;12.78;99.83
23433;BME280;41331;45.412;10.992;2023-04-02T07:01:48;100305.53;;;12.82;99.86
23433;BME280;41331;45.412;10.992;2023-04-02T07:04:18;100303.00;;;12.89;98.70
23433;BME280;41331;45.412;10.992;2023-04-02T07:06:46;100313.72;;;12.82;99.82
23433;BME280;41331;45.412;10.992;2023-04-02T07:09:15;100308.97;;;12.66;100.00
23433;BME280;41331;45.412;10.992;2023-04-02T07:11:47;100317.34;;;12.86;100.00
23433;BME280;41331;45.412;10.992;2023-04-02T07:14:16;100315.75;;;13.13;98.64
23433;BME280;41331;45.412;10.992;2023-04-02T07:16:44;100320.25;;;13.05;96.56
23433;BME280;41331;45.412;10.992;2023-04-02T07:19:15;100327.72;;;13.08;96.58
23433;BME280;41331;45.412;10.992;2023-04-02T07:21:43;100330.09;;;13.10;97.06
23433;BME280;41331;45.412;10.992;2023-04-02T07:24:11;100338.53;;;13.17;97.52
23433;BME280;41331;45.412;10.992;2023-04-02T07:26:39;100341.16;;;13.26;98.27
23433;BME280;41331;45.412;10.992;2023-04-02T07:29:06;100340.69;;;13.24;98.78
23433;BME280;41331;45.412;10.992;2023-04-02T07:31:34;100350.59;;;13.16;99.23
23433;BME280;41331;45.412;10.992;2023-04-02T07:34:03;100350.94;;;13.14;100.00
23433;BME280;41331;45.412;10.992;2023-04-02T07:36:31;100358.38;;;13.02;99.51
23433;BME280;41331;45.412;10.992;2023-04-02T07:38:58;100365.25;;;12.95;100.00
23433;BME280;41331;45.412;10.992;2023-04-02T07:41:25;100370.13;;;12.90;100.00
23433;BME280;41331;45.412;10.992;2023-04-02T07:43:53;100368.53;;;12.89;100.00
23433;BME280;41331;45.412;10.992;2023-04-02T07:46:20;100371.03;;;12.94;99.84
23433;BME280;41331;45.412;10.992;2023-04-02T07:48:48;100366.78;;;13.09;98.76
23433;BME280;41331;45.412;10.992;2023-04-02T07:51:19;100366.03;;;12.96;98.34
23433;BME280;41331;45.412;10.992;2023-04-02T07:53:47;100376.22;;;13.11;98.54
23433;BME280;41331;45.412;10.992;2023-04-02T07:56:21;100384.88;;;13.13;97.58
23433;BME280;41331;45.412;10.992;2023-04-02T07:58:49;100380.56;;;13.12;98.44
23433;BME280;41331;45.412;10.992;2023-04-02T08:01:18;100376.31;;;13.15;96.85
23433;BME280;41331;45.412;10.992;2023-04-02T08:03:46;100379.03;;;13.15;97.34
23433;BME280;41331;45.412;10.992;2023-04-02T08:06:14;100383.66;;;12.99;97.55
23433;BME280;41331;45.412;10.992;2023-04-02T08:08:41;100384.00;;;12.97;98.11
23433;BME280;41331;45.412;10.992;2023-04-02T08:11:08;100389.44;;;13.09;98.01
23433;BME280;41331;45.412;10.992;2023-04-02T08:13:36;100393.13;;;13.01;98.97
23433;BME280;41331;45.412;10.992;2023-04-02T08:16:03;100389.09;;;13.11;98.40
23433;BME280;41331;45.412;10.992;2023-04-02T08:18:31;100396.81;;;13.21;97.85
23433;BME280;41331;45.412;10.992;2023-04-02T08:20:58;100392.81;;;13.31;97.72
23433;BME280;41331;45.412;10.992;2023-04-02T08:23:26;100398.63;;;13.29;98.34
23433;BME280;41331;45.412;10.992;2023-04-02T08:25:53;100397.44;;;13.42;97.70
23433;BME280;41331;45.412;10.992;2023-04-02T08:28:21;100399.63;;;13.37;98.99
23433;BME280;41331;45.412;10.992;2023-04-02T08:30:49;100400.59;;;13.44;98.65
23433;BME280;41331;45.412;10.992;2023-04-02T08:33:17;100406.81;;;13.29;95.75
23433;BME280;41331;45.412;10.992;2023-04-02T08:35:45;100416.19;;;13.16;96.42
23433;BME280;41331;45.412;10.992;2023-04-02T08:38:13;100421.22;;;13.02;96.05
23433;BME280;41331;45.412;10.992;2023-04-02T08:40:41;100435.00;;;12.93;97.29
23433;BME280;41331;45.412;10.992;2023-04-02T08:46:03;100442.09;;;12.57;100.00
23433;BME280;41331;45.412;10.992;2023-04-02T08:48:34;100435.38;;;12.42;100.00
23433;BME280;41331;45.412;10.992;2023-04-02T08:51:02;100430.72;;;12.55;100.00
23433;BME280;41331;45.412;10.992;2023-04-02T08:53:34;100428.78;;;12.56;100.00
23433;BME280;41331;45.412;10.992;2023-04-02T08:59:01;100413.19;;;12.56;100.00
23433;BME280;41331;45.412;10.992;2023-04-02T09:01:33;100404.88;;;12.53;100.00
23433;BME280;41331;45.412;10.992;2023-04-02T09:04:04;100405.69;;;12.29;100.00
23433;BME280;41331;45.412;10.992;2023-04-02T09:06:32;100418.09;;;12.26;100.00
23433;BME280;41331;45.412;10.992;2023-04-02T09:09:00;100420.25;;;12.33;100.00
23433;BME280;41331;45.412;10.992;2023-04-02T09:14:20;100418.97;;;12.55;100.00
23433;BME280;41331;45.412;10.992;2023-04-02T09:16:51;100427.19;;;12.67;100.00
23433;BME280;41331;45.412;10.992;2023-04-02T09:19:21;100427.97;;;12.80;100.00
23433;BME280;41331;45.412;10.992;2023-04-02T09:21:54;100436.81;;;12.89;100.00
23433;BME280;41331;45.412;10.992;2023-04-02T09:24:22;100434.88;;;13.02;100.00
23433;BME280;41331;45.412;10.992;2023-04-02T09:26:49;100439.16;;;13.15;100.00
23433;BME280;41331;45.412;10.992;2023-04-02T09:29:38;100443.19;;;13.05;100.00
23433;BME280;41331;45.412;10.992;2023-04-02T09:32:13;100453.16;;;13.38;100.00
23433;BME280;41331;45.412;10.992;2023-04-02T09:34:44;100441.63;;;13.72;99.45
23433;BME280;41331;45.412;10.992;2023-04-02T09:37:20;100436.16;;;14.48;94.00
23433;BME280;41331;45.412;10.992;2023-04-02T09:39:51;100440.66;;;15.07;89.57
23433;BME280;41331;45.412;10.992;2023-04-02T09:42:31;100441.75;;;15.61;88.33
23433;BME280;41331;45.412;10.992;2023-04-02T09:45:13;100444.97;;;16.05;82.30
23433;BME280;41331;45.412;10.992;2023-04-02T09:47:41;100455.38;;;15.73;87.17
23433;BME280;41331;45.412;10.992;2023-04-02T09:50:12;100457.44;;;15.21;87.47
23433;BME280;41331;45.412;10.992;2023-04-02T09:52:39;100453.69;;;14.94;92.01
23433;BME280;41331;45.412;10.992;2023-04-02T09:57:43;100446.19;;;15.11;87.91
23433;BME280;41331;45.412;10.992;2023-04-02T10:03:01;100437.78;;;14.84;85.66
23433;BME280;41331;45.412;10.992;2023-04-02T10:05:29;100449.31;;;14.58;86.19
23433;BME280;41331;45.412;10.992;2023-04-02T10:08:08;100452.13;;;14.46;91.61
23433;BME280;41331;45.412;10.992;2023-04-02T10:10:43;100442.44;;;14.48;93.91
23433;BME280;41331;45.412;10.992;2023-04-02T10:18:10;100428.31;;;16.40;86.19
23433;BME280;41331;45.412;10.992;2023-04-02T10:20:39;100425.09;;;17.44;78.70
23433;BME280;41331;45.412;10.992;2023-04-02T10:23:17;100423.75;;;18.94;71.31
23433;BME280;41331;45.412;10.992;2023-04-02T10:25:50;100410.56;;;19.39;71.62
23433;BME280;41331;45.412;10.992;2023-04-02T10:28:31;100420.78;;;21.56;64.76
23433;BME280;41331;45.412;10.992;2023-04-02T10:33:38;100415.28;;;23.02;57.88
23433;BME280;41331;45.412;10.992;2023-04-02T10:36:08;100408.88;;;22.67;56.54
23433;BME280;41331;45.412;10.992;2023-04-02T10:38:39;100417.75;;;21.15;58.39
23433;BME280;41331;45.412;10.992;2023-04-02T10:41:17;100411.09;;;19.87;65.50
23433;BME280;41331;45.412;10.992;2023-04-02T10:56:59;100394.97;;;23.08;51.81
23433;BME280;41331;45.412;10.992;2023-04-02T10:59:34;100391.41;;;23.42;51.65
23433;BME280;41331;45.412;10.992;2023-04-02T11:02:05;100400.25;;;23.64;53.26
23433;BME280;41331;45.412;10.992;2023-04-02T11:04:43;100400.03;;;23.78;50.65
23433;BME280;41331;45.412;10.992;2023-04-02T11:07:21;100407.81;;;23.90;48.46
23433;BME280;41331;45.412;10.992;2023-04-02T11:09:51;100413.91;;;24.32;45.02
23433;BME280;41331;45.412;10.992;2023-04-02T11:12:24;100416.56;;;23.89;46.58
23433;BME280;41331;45.412;10.992;2023-04-02T11:14:53;100423.69;;;23.29;48.91
23433;BME280;41331;45.412;10.992;2023-04-02T11:17:22;100418.34;;;24.02;46.38
23433;BME280;41331;45.412;10.992;2023-04-02T11:19:49;100426.81;;;23.95;46.91
23433;BME280;41331;45.412;10.992;2023-04-02T11:22:21;100427.69;;;23.89;46.20
23433;BME280;41331;45.412;10.992;2023-04-02T11:24:49;100440.50;;;24.33;44.95
23433;BME280;41331;45.412;10.992;2023-04-02T11:27:19;100450.63;;;23.32;47.10
23433;BME280;41331;45.412;10.992;2023-04-02T11:32:35;100458.28;;;21.71;53.33
23433;BME280;41331;45.412;10.992;2023-04-02T11:35:23;100468.03;;;20.85;55.10
23433;BME280;41331;45.412;10.992;2023-04-02T11:37:52;100471.94;;;20.27;53.93
23433;BME280;41331;45.412;10.992;2023-04-02T11:45:52;100506.38;;;18.39;53.52
23433;BME280;41331;45.412;10.992;2023-04-02T11:50:48;100512.13;;;16.53;59.37
23433;BME280;41331;45.412;10.992;2023-04-02T11:55:47;100517.47;;;15.46;70.64
23433;BME280;41331;45.412;10.992;2023-04-02T11:58:33;100521.66;;;14.89;71.27
23433;BME280;41331;45.412;10.992;2023-04-02T12:06:05;100507.06;;;14.37;73.71
23433;BME280;41331;45.412;10.992;2023-04-02T12:11:16;100519.59;;;14.38;76.30
23433;BME280;41331;45.412;10.992;2023-04-02T12:13:47;100513.13;;;14.31;76.77
23433;BME280;41331;45.412;10.992;2023-04-02T12:16:14;100505.00;;;14.18;77.46
23433;BME280;41331;45.412;10.992;2023-04-02T12:18:46;100491.97;;;14.28;78.97
23433;BME280;41331;45.412;10.992;2023-04-02T12:21:17;100485.66;;;14.11;78.88
23433;BME280;41331;45.412;10.992;2023-04-02T12:23:45;100489.72;;;14.17;76.80
23433;BME280;41331;45.412;10.992;2023-04-02T12:26:25;100470.19;;;14.03;76.01
23433;BME280;41331;45.412;10.992;2023-04-02T12:28:53;100471.09;;;14.23;75.42
23433;BME280;41331;45.412;10.992;2023-04-02T12:31:22;100454.41;;;14.44;74.61
23433;BME280;41331;45.412;10.992;2023-04-02T12:33:51;100459.84;;;14.72;73.94
23433;BME280;41331;45.412;10.992;2023-04-02T12:36:19;100453.63;;;14.75;73.28
23433;BME280;41331;45.412;10.992;2023-04-02T12:41:18;100429.63;;;15.81;72.63
23433;BME280;41331;45.412;10.992;2023-04-02T12:43:47;100427.19;;;16.18;71.97
23433;BME280;41331;45.412;10.992;2023-04-02T12:46:22;100415.28;;;16.60;70.55
23433;BME280;41331;45.412;10.992;2023-04-02T12:48:52;100414.50;;;16.60;68.24
23433;BME280;41331;45.412;10.992;2023-04-02T12:51:20;100404.84;;;16.96;66.32
23433;BME280;41331;45.412;10.992;2023-04-02T12:53:48;100407.72;;;17.70;62.58
23433;BME280;41331;45.412;10.992;2023-04-02T12:56:19;100403.50;;;18.21;60.96
23433;BME280;41331;45.412;10.992;2023-04-02T12:58:51;100411.25;;;18.56;60.60
23433;BME280;41331;45.412;10.992;2023-04-02T13:01:20;100401.34;;;19.06;58.12
23433;BME280;41331;45.412;10.992;2023-04-02T13:04:05;100401.47;;;18.66;55.57
23433;BME280;41331;45.412;10.992;2023-04-02T13:06:33;100394.94;;;18.84;54.69
23433;BME280;41331;45.412;10.992;2023-04-02T13:09:02;100393.94;;;19.25;56.92
23433;BME280;41331;45.412;10.992;2023-04-02T13:11:33;100385.47;;;19.80;56.02
23433;BME280;41331;45.412;10.992;2023-04-02T13:14:02;100376.78;;;19.88;54.13
23433;BME280;41331;45.412;10.992;2023-04-02T13:16:33;100375.63;;;20.04;53.41
23433;BME280;41331;45.412;10.992;2023-04-02T13:19:08;100373.25;;;20.56;49.78
23433;BME280;41331;45.412;10.992;2023-04-02T13:21:36;100366.53;;;20.14;46.82
23433;BME280;41331;45.412;10.992;2023-04-02T13:24:04;100366.53;;;19.89;44.43
23433;BME280;41331;45.412;10.992;2023-04-02T13:26:31;100359.06;;;19.93;46.84
23433;BME280;41331;45.412;10.992;2023-04-02T13:29:01;100357.84;;;20.01;48.10
23433;BME280;41331;45.412;10.992;2023-04-02T13:31:29;100358.22;;;19.82;47.70
23433;BME280;41331;45.412;10.992;2023-04-02T13:33:57;100348.72;;;19.61;46.56
23433;BME280;41331;45.412;10.992;2023-04-02T13:36:24;100349.94;;;19.82;46.58
23433;BME280;41331;45.412;10.992;2023-04-02T13:38:54;100351.94;;;19.99;46.88
23433;BME280;41331;45.412;10.992;2023-04-02T13:41:26;100349.59;;;20.08;43.71
23433;BME280;41331;45.412;10.992;2023-04-02T13:43:53;100353.50;;;19.79;44.11
23433;BME280;41331;45.412;10.992;2023-04-02T13:46:25;100350.34;;;19.84;46.23
23433;BME280;41331;45.412;10.992;2023-04-02T13:48:53;100349.16;;;19.63;42.93
23433;BME280;41331;45.412;10.992;2023-04-02T13:51:26;100360.91;;;19.50;42.35
23433;BME280;41331;45.412;10.992;2023-04-02T13:53:57;100350.34;;;19.73;43.43
23433;BME280;41331;45.412;10.992;2023-04-02T13:56:25;100351.16;;;19.84;41.19
23433;BME280;41331;45.412;10.992;2023-04-02T13:58:52;100350.72;;;19.82;41.15
23433;BME280;41331;45.412;10.992;2023-04-02T14:01:20;100352.31;;;20.01;44.92
23433;BME280;41331;45.412;10.992;2023-04-02T14:03:50;100350.34;;;20.55;42.31
23433;BME280;41331;45.412;10.992;2023-04-02T14:09:00;100351.84;;;20.81;38.31
23433;BME280;41331;45.412;10.992;2023-04-02T14:16:41;100349.06;;;20.88;39.17
23433;BME280;41331;45.412;10.992;2023-04-02T14:19:30;100346.34;;;20.74;37.42
23433;BME280;41331;45.412;10.992;2023-04-02T14:27:51;100346.22;;;21.10;36.48
23433;BME280;41331;45.412;10.992;2023-04-02T14:30:26;100346.94;;;21.21;36.68
23433;BME280;41331;45.412;10.992;2023-04-02T14:35:31;100340.41;;;20.76;38.43
23433;BME280;41331;45.412;10.992;2023-04-02T14:40:38;100345.03;;;21.11;37.14
23433;BME280;41331;45.412;10.992;2023-04-02T14:45:55;100342.44;;;21.59;35.72
23433;BME280;41331;45.412;10.992;2023-04-02T14:48:39;100339.81;;;21.27;35.25
23433;BME280;41331;45.412;10.992;2023-04-02T14:54:00;100333.00;;;20.19;36.95
23433;BME280;41331;45.412;10.992;2023-04-02T14:56:25;100342.88;;;20.09;38.31
23433;BME280;41331;45.412;10.992;2023-04-02T15:01:49;100346.31;;;19.53;39.67
23433;BME280;41331;45.412;10.992;2023-04-02T15:04:34;100347.53;;;19.59;39.07
23433;BME280;41331;45.412;10.992;2023-04-02T15:07:04;100343.09;;;19.26;40.24
23433;BME280;41331;45.412;10.992;2023-04-02T15:09:36;100338.22;;;18.91;40.47
23433;BME280;41331;45.412;10.992;2023-04-02T15:12:08;100342.13;;;18.79;42.20
23433;BME280;41331;45.412;10.992;2023-04-02T15:14:40;100350.84;;;18.88;42.25
23433;BME280;41331;45.412;10.992;2023-04-02T15:17:10;100351.19;;;18.79;42.53
23433;BME280;41331;45.412;10.992;2023-04-02T15:19:38;100342.94;;;18.83;41.95
23433;BME280;41331;45.412;10.992;2023-04-02T15:32:37;100352.84;;;18.36;42.84
23433;BME280;41331;45.412;10.992;2023-04-02T15:37:41;100344.81;;;18.13;43.40
23433;BME280;41331;45.412;10.992;2023-04-02T15:40:29;100336.91;;;18.11;43.13
23433;BME280;41331;45.412;10.992;2023-04-02T15:45:43;100342.44;;;18.11;46.62
23433;BME280;41331;45.412;10.992;2023-04-02T15:48:24;100341.50;;;17.97;44.05
23433;BME280;41331;45.412;10.992;2023-04-02T15:50:55;100349.69;;;17.86;44.43
23433;BME280;41331;45.412;10.992;2023-04-02T15:56:20;100347.44;;;17.99;43.95
23433;BME280;41331;45.412;10.992;2023-04-02T16:04:22;100352.81;;;17.84;43.07
23433;BME280;41331;45.412;10.992;2023-04-02T16:06:55;100349.25;;;17.80;43.65
23433;BME280;41331;45.412;10.992;2023-04-02T16:12:14;100357.25;;;17.93;43.21
23433;BME280;41331;45.412;10.992;2023-04-02T16:14:44;100363.25;;;17.68;44.72
23433;BME280;41331;45.412;10.992;2023-04-02T16:17:22;100370.59;;;17.57;45.57
23433;BME280;41331;45.412;10.992;2023-04-02T16:19:52;100367.72;;;17.46;44.20
23433;BME280;41331;45.412;10.992;2023-04-02T16:22:26;100368.06;;;17.41;44.03
23433;BME280;41331;45.412;10.992;2023-04-02T16:32:35;100377.94;;;17.42;44.91
23433;BME280;41331;45.412;10.992;2023-04-02T16:38:15;100377.03;;;17.34;46.54
23433;BME280;41331;45.412;10.992;2023-04-02T16:46:35;100389.28;;;17.41;45.96